6°C
Woerden, The Nederlands
Taal:  Nederlands
Updated27/03/2019 02:15 
 
Station Historical Data
Daily Summary for January 13, 2019 Units:  Both    English   Metric
Next Day »
Daily Weekly Monthly Yearly Custom
  High: Low: Average:
Temperature: 49.8 °F /  9.9 °C 46.2 °F /  7.9 °C 48.2 °F /  9 °C
Dew Point: 45.5 °F /  7.5 °C 41.2 °F /  5.1 °C 43.9 °F /  6.6 °C
Humidity: 87% 82% 85%
Wind Speed: 33.4mph /  53.7km/h - 20.2mph /  32.5km/h
Wind Gust: 22.8mph /  36.7km/h - -
Wind- - West
Pressure: 29.9 in /  1011.7 hPa 29.6 in /  1002.0 hPa -
Precipitation: 0.19 in /  4.8 mm    
Historical Graphs
 
 
Tabular Data for January 13, 2019
Time Temperature Dew Point Pressure Wind Wind Speed Wind Gust Humidity Rainfall Rate (Hourly) solar Conditions
00:04 46.8 °F /  8.2 °C 42.8 °F /  6.0 °C 29.9in /  1011.6hPa West 11.5mph /  18.5km/h 9.7mph /  15.6km/h 86% 0in /  0.0mm 0.00 W/m2 RA
00:09 46.8 °F /  8.2 °C 42.6 °F /  5.9 °C 29.9in /  1011.6hPa West 13mph /  20.9km/h 11mph /  17.7km/h 86% 0in /  0.0mm 0.00 W/m2 RA
00:14 46.6 °F /  8.1 °C 43 °F /  6.1 °C 29.9in /  1011.6hPa West 15mph /  24.1km/h 8.6mph /  13.8km/h 87% 0in /  0.0mm 0.00 W/m2 CLR
00:19 46.6 °F /  8.1 °C 42.8 °F /  6.0 °C 29.9in /  1011.7hPa West 12.7mph /  20.4km/h 9.9mph /  15.9km/h 87% 0in /  0.0mm 0.00 W/m2 CLR
00:24 46.6 °F /  8.1 °C 42.8 °F /  6.0 °C 29.9in /  1011.6hPa West 13.8mph /  22.2km/h 10.1mph /  16.3km/h 87% 0in /  0.0mm 0.00 W/m2 CLR
00:29 46.6 °F /  8.1 °C 42.8 °F /  6.0 °C 29.9in /  1011.7hPa WSW 12.7mph /  20.4km/h 10.4mph /  16.7km/h 87% 0in /  0.0mm 0.00 W/m2 CLR
00:34 46.4 °F /  8.0 °C 42.6 °F /  5.9 °C 29.9in /  1011.7hPa WNW 12mph /  19.3km/h 9.4mph /  15.1km/h 87% 0in /  0.0mm 0.00 W/m2 CLR
00:39 46.4 °F /  8.0 °C 42.6 °F /  5.9 °C 29.9in /  1011.7hPa WNW 12.7mph /  20.4km/h 10mph /  16.1km/h 87% 0in /  0.0mm 0.00 W/m2 CLR
00:44 46.2 °F /  7.9 °C 42.6 °F /  5.9 °C 29.9in /  1011.7hPa West 13.8mph /  22.2km/h 10.6mph /  17.1km/h 87% 0in /  0.0mm 0.00 W/m2 CLR
00:49 46.2 °F /  7.9 °C 42.6 °F /  5.9 °C 29.9in /  1011.7hPa West 12.7mph /  20.4km/h 9.3mph /  15.0km/h 87% 0.01in /  0.3mm 0.00 W/m2 RA
00:54 46.2 °F /  7.9 °C 42.4 °F /  5.8 °C 29.9in /  1011.6hPa West 15mph /  24.1km/h 10.3mph /  16.6km/h 87% 0.01in /  0.3mm 0.00 W/m2 RA
00:59 46.2 °F /  7.9 °C 42.4 °F /  5.8 °C 29.9in /  1011.5hPa West 13mph /  20.9km/h 10.5mph /  16.9km/h 87% 0.01in /  0.3mm 0.00 W/m2
01:04 46.2 °F /  7.9 °C 42.4 °F /  5.8 °C 29.9in /  1011.6hPa West 17.3mph /  27.8km/h 12mph /  19.3km/h 87% 0.01in /  0.3mm 0.00 W/m2
01:09 46.2 °F /  7.9 °C 42.4 °F /  5.8 °C 29.9in /  1011.5hPa WNW 15mph /  24.1km/h 8.8mph /  14.2km/h 87% 0.01in /  0.3mm 0.00 W/m2
01:14 46.2 °F /  7.9 °C 42.3 °F /  5.7 °C 29.9in /  1011.5hPa WSW 10.4mph /  16.7km/h 7mph /  11.3km/h 86% 0.01in /  0.3mm 0.00 W/m2
01:19 46.2 °F /  7.9 °C 42.3 °F /  5.7 °C 29.9in /  1011.4hPa WSW 13mph /  20.9km/h 10.6mph /  17.1km/h 86% 0.02in /  0.5mm 0.00 W/m2 RA
01:24 46.2 °F /  7.9 °C 42.3 °F /  5.7 °C 29.9in /  1011.4hPa West 11.5mph /  18.5km/h 9mph /  14.5km/h 86% 0.02in /  0.5mm 0.00 W/m2 RA
01:29 46.2 °F /  7.9 °C 42.3 °F /  5.7 °C 29.9in /  1011.3hPa West 13.8mph /  22.2km/h 10mph /  16.1km/h 86% 0.02in /  0.5mm 0.00 W/m2 RA
01:34 46.2 °F /  7.9 °C 42.3 °F /  5.7 °C 29.9in /  1011.3hPa WSW 12mph /  19.3km/h 9.1mph /  14.6km/h 86% 0.02in /  0.5mm 0.00 W/m2 RA
01:39 46.2 °F /  7.9 °C 42.3 °F /  5.7 °C 29.9in /  1011.2hPa West 12.7mph /  20.4km/h 9.4mph /  15.1km/h 86% 0.02in /  0.5mm 0.00 W/m2
01:44 46.2 °F /  7.9 °C 42.3 °F /  5.7 °C 29.9in /  1011.2hPa West 10.4mph /  16.7km/h 8.5mph /  13.7km/h 86% 0.02in /  0.5mm 0.00 W/m2
01:49 46.2 °F /  7.9 °C 42.3 °F /  5.7 °C 29.9in /  1011.2hPa West 10.4mph /  16.7km/h 8.3mph /  13.4km/h 86% 0.02in /  0.5mm 0.00 W/m2
01:54 46.2 °F /  7.9 °C 42.3 °F /  5.7 °C 29.9in /  1011.1hPa WSW 11.5mph /  18.5km/h 9.5mph /  15.3km/h 86% 0.02in /  0.5mm 0.00 W/m2
01:59 46.2 °F /  7.9 °C 42.3 °F /  5.7 °C 29.9in /  1011.1hPa WSW 11.5mph /  18.5km/h 7.8mph /  12.6km/h 86% 0.02in /  0.5mm 0.00 W/m2
02:04 46.2 °F /  7.9 °C 42.3 °F /  5.7 °C 29.9in /  1011.1hPa West 12.7mph /  20.4km/h 9.2mph /  14.8km/h 86% 0.02in /  0.5mm 0.00 W/m2
02:09 46.4 °F /  8.0 °C 42.4 °F /  5.8 °C 29.9in /  1011.1hPa West 11.5mph /  18.5km/h 8.2mph /  13.2km/h 86% 0.02in /  0.5mm 0.00 W/m2
02:14 46.4 °F /  8.0 °C 42.4 °F /  5.8 °C 29.9in /  1010.9hPa WNW 11.5mph /  18.5km/h 9.7mph /  15.6km/h 86% 0.02in /  0.5mm 0.00 W/m2 RA
02:19 46.4 °F /  8.0 °C 42.4 °F /  5.8 °C 29.9in /  1010.8hPa West 12.7mph /  20.4km/h 8.7mph /  14.0km/h 86% 0.02in /  0.5mm 0.00 W/m2 RA
02:24 46.4 °F /  8.0 °C 42.4 °F /  5.8 °C 29.8in /  1010.6hPa West 13.8mph /  22.2km/h 9.9mph /  15.9km/h 86% 0.02in /  0.5mm 0.00 W/m2
02:29 46.6 °F /  8.1 °C 42.4 °F /  5.8 °C 29.8in /  1010.5hPa WSW 11.5mph /  18.5km/h 8.3mph /  13.4km/h 86% 0.01in /  0.3mm 0.00 W/m2
02:34 46.6 °F /  8.1 °C 42.4 °F /  5.8 °C 29.8in /  1010.5hPa West 13.8mph /  22.2km/h 10.9mph /  17.5km/h 86% 0.01in /  0.3mm 0.00 W/m2
02:39 46.6 °F /  8.1 °C 42.6 °F /  5.9 °C 29.8in /  1010.4hPa West 11.5mph /  18.5km/h 10.4mph /  16.7km/h 86% 0.01in /  0.3mm 0.00 W/m2
02:44 46.8 °F /  8.2 °C 42.6 °F /  5.9 °C 29.8in /  1010.3hPa West 13.8mph /  22.2km/h 10.9mph /  17.5km/h 86% 0.01in /  0.3mm 0.00 W/m2
02:49 46.8 °F /  8.2 °C 42.6 °F /  5.9 °C 29.8in /  1010.5hPa West 13.8mph /  22.2km/h 10.4mph /  16.7km/h 86% 0.01in /  0.3mm 0.00 W/m2
02:54 46.8 °F /  8.2 °C 42.6 °F /  5.9 °C 29.8in /  1010.6hPa WNW 13.8mph /  22.2km/h 9.8mph /  15.8km/h 86% 0.01in /  0.3mm 0.00 W/m2
02:59 46.8 °F /  8.2 °C 42.6 °F /  5.9 °C 29.8in /  1010.5hPa West 12.7mph /  20.4km/h 9.5mph /  15.3km/h 86% 0.01in /  0.3mm 0.00 W/m2
03:04 46.8 °F /  8.2 °C 42.8 °F /  6.0 °C 29.8in /  1010.5hPa West 13.8mph /  22.2km/h 8.9mph /  14.3km/h 86% 0.01in /  0.3mm 0.00 W/m2
03:09 46.8 °F /  8.2 °C 42.8 °F /  6.0 °C 29.8in /  1010.4hPa West 13.8mph /  22.2km/h 9.2mph /  14.8km/h 86% 0.01in /  0.3mm 0.00 W/m2
03:14 46.8 °F /  8.2 °C 42.6 °F /  5.9 °C 29.8in /  1010.5hPa West 13mph /  20.9km/h 11.1mph /  17.9km/h 86% 0in /  0.0mm 0.00 W/m2 CLR
03:19 46.8 °F /  8.2 °C 42.8 °F /  6.0 °C 29.8in /  1010.5hPa West 13mph /  20.9km/h 11.4mph /  18.3km/h 86% 0in /  0.0mm 0.00 W/m2 CLR
03:24 46.8 °F /  8.2 °C 42.8 °F /  6.0 °C 29.8in /  1010.6hPa West 11.5mph /  18.5km/h 8.6mph /  13.8km/h 86% 0in /  0.0mm 0.00 W/m2 CLR
03:29 46.8 °F /  8.2 °C 42.6 °F /  5.9 °C 29.8in /  1010.5hPa West 12.7mph /  20.4km/h 8.1mph /  13.0km/h 86% 0in /  0.0mm 0.00 W/m2 CLR
03:34 46.8 °F /  8.2 °C 42.6 °F /  5.9 °C 29.8in /  1010.3hPa West 11.5mph /  18.5km/h 8.3mph /  13.4km/h 86% 0.01in /  0.3mm 0.00 W/m2 RA
03:39 46.8 °F /  8.2 °C 42.6 °F /  5.9 °C 29.8in /  1010.1hPa West 11.5mph /  18.5km/h 8.4mph /  13.5km/h 86% 0.01in /  0.3mm 0.00 W/m2 RA
03:44 46.8 °F /  8.2 °C 42.6 °F /  5.9 °C 29.8in /  1010.0hPa West 11.5mph /  18.5km/h 7.9mph /  12.7km/h 86% 0.01in /  0.3mm 0.00 W/m2
03:49 46.8 °F /  8.2 °C 42.8 °F /  6.0 °C 29.8in /  1010.0hPa West 11.5mph /  18.5km/h 10.7mph /  17.2km/h 86% 0.02in /  0.5mm 0.00 W/m2 RA
03:54 46.8 °F /  8.2 °C 42.8 °F /  6.0 °C 29.8in /  1009.9hPa West 10.4mph /  16.7km/h 9.5mph /  15.3km/h 86% 0.02in /  0.5mm 0.00 W/m2 RA
03:59 46.8 °F /  8.2 °C 42.8 °F /  6.0 °C 29.8in /  1009.9hPa West 12mph /  19.3km/h 10.5mph /  16.9km/h 86% 0.02in /  0.5mm 0.00 W/m2
04:04 46.9 °F /  8.3 °C 43 °F /  6.1 °C 29.8in /  1009.8hPa West 10.4mph /  16.7km/h 10mph /  16.1km/h 86% 0.02in /  0.5mm 0.00 W/m2
04:09 46.9 °F /  8.3 °C 43 °F /  6.1 °C 29.8in /  1009.8hPa WSW 11.5mph /  18.5km/h 8mph /  12.9km/h 86% 0.02in /  0.5mm 0.00 W/m2
04:14 46.9 °F /  8.3 °C 43 °F /  6.1 °C 29.8in /  1009.7hPa WSW 11.5mph /  18.5km/h 10.4mph /  16.7km/h 86% 0.02in /  0.5mm 0.00 W/m2
04:19 47.1 °F /  8.4 °C 43.2 °F /  6.2 °C 29.8in /  1009.6hPa West 11.5mph /  18.5km/h 11.8mph /  19.0km/h 86% 0.02in /  0.5mm 0.00 W/m2
04:24 47.1 °F /  8.4 °C 43.2 °F /  6.2 °C 29.8in /  1009.6hPa WSW 11.5mph /  18.5km/h 11mph /  17.7km/h 86% 0.02in /  0.5mm 0.00 W/m2
04:29 47.1 °F /  8.4 °C 43.2 °F /  6.2 °C 29.8in /  1009.5hPa West 16.1mph /  25.9km/h 11.8mph /  19.0km/h 86% 0.02in /  0.5mm 0.00 W/m2 RA
04:34 47.3 °F /  8.5 °C 43 °F /  6.1 °C 29.8in /  1009.5hPa WSW 13mph /  20.9km/h 10.2mph /  16.4km/h 85% 0.02in /  0.5mm 0.00 W/m2 RA
04:39 47.5 °F /  8.6 °C 43.2 °F /  6.2 °C 29.8in /  1009.2hPa West 15mph /  24.1km/h 11.8mph /  19.0km/h 85% 0.02in /  0.5mm 0.00 W/m2
04:44 47.5 °F /  8.6 °C 42.4 °F /  5.8 °C 29.8in /  1009.1hPa West 17.3mph /  27.8km/h 9.6mph /  15.4km/h 83% 0.02in /  0.5mm 0.00 W/m2
04:49 47.5 °F /  8.6 °C 43.2 °F /  6.2 °C 29.8in /  1009.1hPa WSW 12.7mph /  20.4km/h 10.3mph /  16.6km/h 85% 0.01in /  0.3mm 0.00 W/m2
04:54 47.5 °F /  8.6 °C 43.2 °F /  6.2 °C 29.8in /  1009.1hPa West 15mph /  24.1km/h 11.6mph /  18.7km/h 85% 0.01in /  0.3mm 0.00 W/m2
04:59 47.5 °F /  8.6 °C 43.2 °F /  6.2 °C 29.8in /  1009.1hPa WSW 18.4mph /  29.6km/h 12.2mph /  19.6km/h 85% 0.01in /  0.3mm 0.00 W/m2
05:04 47.5 °F /  8.6 °C 43.2 °F /  6.2 °C 29.8in /  1009.0hPa WSW 12.7mph /  20.4km/h 10mph /  16.1km/h 85% 0.01in /  0.3mm 0.00 W/m2
05:09 47.5 °F /  8.6 °C 43.2 °F /  6.2 °C 29.8in /  1008.9hPa West 16.1mph /  25.9km/h 12.2mph /  19.6km/h 85% 0.01in /  0.3mm 0.00 W/m2
05:14 47.5 °F /  8.6 °C 43.2 °F /  6.2 °C 29.8in /  1008.7hPa WSW 15mph /  24.1km/h 11.7mph /  18.8km/h 85% 0.01in /  0.3mm 0.00 W/m2
05:19 47.7 °F /  8.7 °C 43.3 °F /  6.3 °C 29.8in /  1008.4hPa WSW 19.6mph /  31.5km/h 10.9mph /  17.5km/h 85% 0.01in /  0.3mm 0.00 W/m2
05:24 47.7 °F /  8.7 °C 43.3 °F /  6.3 °C 29.8in /  1008.2hPa WNW 16mph /  25.7km/h 10.9mph /  17.5km/h 85% 0.02in /  0.5mm 0.00 W/m2 RA
05:29 47.7 °F /  8.7 °C 43.3 °F /  6.3 °C 29.8in /  1007.9hPa West 18.4mph /  29.6km/h 12.4mph /  20.0km/h 85% 0.01in /  0.3mm 0.00 W/m2 RA
05:34 47.7 °F /  8.7 °C 43.3 °F /  6.3 °C 29.8in /  1008.0hPa West 13.8mph /  22.2km/h 11.7mph /  18.8km/h 85% 0.02in /  0.5mm 0.00 W/m2 RA
05:39 47.7 °F /  8.7 °C 43.3 °F /  6.3 °C 29.8in /  1008.0hPa West 19.6mph /  31.5km/h 12.8mph /  20.6km/h 85% 0.02in /  0.5mm 0.00 W/m2 RA
05:44 47.8 °F /  8.8 °C 43.5 °F /  6.4 °C 29.8in /  1008.0hPa West 18.4mph /  29.6km/h 11.3mph /  18.2km/h 85% 0.02in /  0.5mm 0.00 W/m2
05:49 47.8 °F /  8.8 °C 43.5 °F /  6.4 °C 29.8in /  1007.9hPa WSW 17.3mph /  27.8km/h 12.8mph /  20.6km/h 85% 0.02in /  0.5mm 0.00 W/m2
05:54 47.8 °F /  8.8 °C 43.5 °F /  6.4 °C 29.8in /  1007.8hPa WSW 26.5mph /  42.6km/h 14.6mph /  23.5km/h 85% 0.02in /  0.5mm 0.00 W/m2
05:59 47.8 °F /  8.8 °C 43.5 °F /  6.4 °C 29.8in /  1007.8hPa West 19.6mph /  31.5km/h 17.3mph /  27.8km/h 85% 0.02in /  0.5mm 0.00 W/m2 RA
06:04 47.8 °F /  8.8 °C 43.5 °F /  6.4 °C 29.8in /  1007.8hPa WNW 21.9mph /  35.2km/h 15.5mph /  24.9km/h 85% 0.02in /  0.5mm 0.00 W/m2 RA
06:09 48 °F /  8.9 °C 43.7 °F /  6.5 °C 29.8in /  1007.8hPa West 19.6mph /  31.5km/h 14.4mph /  23.2km/h 85% 0.03in /  0.8mm 0.00 W/m2 RA
06:14 48 °F /  8.9 °C 43.7 °F /  6.5 °C 29.8in /  1007.8hPa West 19.6mph /  31.5km/h 15.8mph /  25.4km/h 85% 0.03in /  0.8mm 0.00 W/m2 RA
06:19 48 °F /  8.9 °C 43.9 °F /  6.6 °C 29.8in /  1007.8hPa NW 28.8mph /  46.3km/h 14.5mph /  23.3km/h 85% 0.04in /  1.0mm 0.00 W/m2 RA
06:24 48 °F /  8.9 °C 43.9 °F /  6.6 °C 29.8in /  1007.6hPa West 20.7mph /  33.3km/h 14mph /  22.5km/h 85% 0.04in /  1.0mm 0.00 W/m2 RA
06:29 48 °F /  8.9 °C 43.9 °F /  6.6 °C 29.8in /  1007.6hPa WSW 21.9mph /  35.2km/h 16.6mph /  26.7km/h 85% 0.04in /  1.0mm 0.00 W/m2 RA
06:34 48 °F /  8.9 °C 43.9 °F /  6.6 °C 29.8in /  1007.6hPa West 20.7mph /  33.3km/h 17.8mph /  28.6km/h 85% 0.04in /  1.0mm 0.00 W/m2 RA
06:39 48 °F /  8.9 °C 43.9 °F /  6.6 °C 29.8in /  1007.6hPa WNW 19.6mph /  31.5km/h 13.4mph /  21.6km/h 85% 0.05in /  1.3mm 0.00 W/m2 RA
06:44 48 °F /  8.9 °C 43.9 °F /  6.6 °C 29.8in /  1007.6hPa WNW 20.7mph /  33.3km/h 12.8mph /  20.6km/h 85% 0.05in /  1.3mm 0.00 W/m2 RA
06:49 48 °F /  8.9 °C 43.9 °F /  6.6 °C 29.8in /  1007.5hPa WNW 20.7mph /  33.3km/h 12.5mph /  20.1km/h 85% 0.06in /  1.5mm 0.00 W/m2 RA
06:54 48.2 °F /  9.0 °C 43.9 °F /  6.6 °C 29.8in /  1007.5hPa West 23mph /  37.0km/h 12.8mph /  20.6km/h 85% 0.06in /  1.5mm 0.00 W/m2 RA
06:59 48.2 °F /  9.0 °C 43.9 °F /  6.6 °C 29.8in /  1007.4hPa WSW 21mph /  33.8km/h 14.6mph /  23.5km/h 85% 0.05in /  1.3mm 0.00 W/m2
07:04 48.4 °F /  9.1 °C 44.1 °F /  6.7 °C 29.7in /  1007.2hPa WSW 19.6mph /  31.5km/h 15.5mph /  24.9km/h 85% 0.05in /  1.3mm 0.00 W/m2
07:09 48.4 °F /  9.1 °C 44.1 °F /  6.7 °C 29.7in /  1007.2hPa West 18.4mph /  29.6km/h 14.6mph /  23.5km/h 85% 0.05in /  1.3mm 0.00 W/m2 RA
07:14 48.4 °F /  9.1 °C 44.1 °F /  6.7 °C 29.7in /  1007.3hPa West 19.6mph /  31.5km/h 15.3mph /  24.6km/h 85% 0.05in /  1.3mm 0.00 W/m2 RA
07:19 48.4 °F /  9.1 °C 44.1 °F /  6.7 °C 29.7in /  1007.3hPa West 21.9mph /  35.2km/h 14.9mph /  24.0km/h 85% 0.04in /  1.0mm 0.00 W/m2
07:24 48.4 °F /  9.1 °C 44.1 °F /  6.7 °C 29.7in /  1007.0hPa West 19.6mph /  31.5km/h 15.6mph /  25.1km/h 85% 0.03in /  0.8mm 0.00 W/m2
07:29 48.6 °F /  9.2 °C 44.4 °F /  6.9 °C 29.7in /  1007.1hPa West 21.9mph /  35.2km/h 16.5mph /  26.5km/h 86% 0.03in /  0.8mm 0.00 W/m2
07:34 48.7 °F /  9.3 °C 44.8 °F /  7.1 °C 29.7in /  1007.0hPa West 20mph /  32.2km/h 14.4mph /  23.2km/h 86% 0.02in /  0.5mm 0.00 W/m2
07:39 48.7 °F /  9.3 °C 44.8 °F /  7.1 °C 29.7in /  1007.2hPa West 25.3mph /  40.7km/h 15.1mph /  24.3km/h 86% 0.02in /  0.5mm 0.00 W/m2
07:44 48.9 °F /  9.4 °C 45 °F /  7.2 °C 29.7in /  1006.9hPa WNW 20.7mph /  33.3km/h 17.2mph /  27.7km/h 86% 0.02in /  0.5mm 0.00 W/m2
07:49 48.9 °F /  9.4 °C 45 °F /  7.2 °C 29.7in /  1006.9hPa West 21mph /  33.8km/h 15.8mph /  25.4km/h 86% 0.01in /  0.3mm 0.00 W/m2
07:54 49.3 °F /  9.6 °C 45.1 °F /  7.3 °C 29.7in /  1007.0hPa WNW 24.2mph /  38.9km/h 12.4mph /  20.0km/h 86% 0.01in /  0.3mm 0.00 W/m2
07:59 49.3 °F /  9.6 °C 45.1 °F /  7.3 °C 29.7in /  1006.9hPa WSW 21.9mph /  35.2km/h 15.9mph /  25.6km/h 86% 0.02in /  0.5mm 0.00 W/m2 RA
08:04 49.3 °F /  9.6 °C 45.1 °F /  7.3 °C 29.7in /  1006.9hPa WNW 19.6mph /  31.5km/h 14.2mph /  22.8km/h 86% 0.02in /  0.5mm 0.00 W/m2 RA
08:09 49.3 °F /  9.6 °C 45.1 °F /  7.3 °C 29.7in /  1006.9hPa West 18.4mph /  29.6km/h 12.7mph /  20.4km/h 86% 0.01in /  0.3mm 0.00 W/m2
08:14 49.3 °F /  9.6 °C 45.1 °F /  7.3 °C 29.7in /  1007.0hPa West 19.6mph /  31.5km/h 14.6mph /  23.5km/h 86% 0.01in /  0.3mm 0.00 W/m2
08:19 49.3 °F /  9.6 °C 45.1 °F /  7.3 °C 29.7in /  1006.9hPa WNW 21.9mph /  35.2km/h 15.8mph /  25.4km/h 86% 0.01in /  0.3mm 0.00 W/m2
08:24 49.3 °F /  9.6 °C 45.1 °F /  7.3 °C 29.7in /  1007.0hPa West 24.2mph /  38.9km/h 15.1mph /  24.3km/h 86% 0.01in /  0.3mm 0.00 W/m2
08:29 49.3 °F /  9.6 °C 45.1 °F /  7.3 °C 29.7in /  1007.0hPa West 21.9mph /  35.2km/h 15.6mph /  25.1km/h 86% 0.01in /  0.3mm 0.00 W/m2
08:34 49.3 °F /  9.6 °C 45 °F /  7.2 °C 29.7in /  1006.9hPa West 17.3mph /  27.8km/h 13.9mph /  22.4km/h 85% 0.01in /  0.3mm 0.00 W/m2
08:39 49.3 °F /  9.6 °C 45 °F /  7.2 °C 29.7in /  1007.0hPa WNW 23mph /  37.0km/h 17.6mph /  28.3km/h 85% 0.01in /  0.3mm 0.00 W/m2
08:44 49.3 °F /  9.6 °C 45.3 °F /  7.4 °C 29.7in /  1007.1hPa West 23mph /  37.0km/h 14.6mph /  23.5km/h 86% 0.01in /  0.3mm 0.00 W/m2
08:49 49.3 °F /  9.6 °C 45.3 °F /  7.4 °C 29.7in /  1006.9hPa West 21.9mph /  35.2km/h 16.1mph /  25.9km/h 86% 0.01in /  0.3mm 0.00 W/m2 OVC
08:54 49.3 °F /  9.6 °C 45 °F /  7.2 °C 29.7in /  1006.9hPa West 19.6mph /  31.5km/h 12.7mph /  20.4km/h 85% 0.01in /  0.3mm 0.00 W/m2 OVC
08:59 49.3 °F /  9.6 °C 45 °F /  7.2 °C 29.7in /  1006.8hPa West 19.6mph /  31.5km/h 19.5mph /  31.4km/h 85% 0in /  0.0mm 0.00 W/m2 OVC
09:04 49.3 °F /  9.6 °C 45 °F /  7.2 °C 29.7in /  1006.7hPa West 25.3mph /  40.7km/h 15mph /  24.1km/h 85% 0in /  0.0mm 5.00 W/m2 OVC
09:09 49.1 °F /  9.5 °C 44.8 °F /  7.1 °C 29.7in /  1006.7hPa West 21.9mph /  35.2km/h 15.7mph /  25.3km/h 85% 0in /  0.0mm 9.00 W/m2 OVC
09:14 49.3 °F /  9.6 °C 45 °F /  7.2 °C 29.7in /  1006.5hPa West 20.7mph /  33.3km/h 16.7mph /  26.9km/h 85% 0in /  0.0mm 14.00 W/m2 OVC
09:19 49.3 °F /  9.6 °C 45 °F /  7.2 °C 29.7in /  1006.6hPa WSW 21.9mph /  35.2km/h 15.6mph /  25.1km/h 85% 0in /  0.0mm 18.00 W/m2 OVC
09:24 49.3 °F /  9.6 °C 45 °F /  7.2 °C 29.7in /  1006.4hPa WSW 18.4mph /  29.6km/h 15.9mph /  25.6km/h 85% 0in /  0.0mm 16.00 W/m2 OVC
09:29 49.3 °F /  9.6 °C 45 °F /  7.2 °C 29.7in /  1006.5hPa WSW 20.7mph /  33.3km/h 12.8mph /  20.6km/h 85% 0in /  0.0mm 14.00 W/m2 OVC
09:34 49.1 °F /  9.5 °C 44.8 °F /  7.1 °C 29.7in /  1006.5hPa WSW 19.6mph /  31.5km/h 14.5mph /  23.3km/h 85% 0in /  0.0mm 14.00 W/m2 OVC
09:39 49.3 °F /  9.6 °C 45 °F /  7.2 °C 29.7in /  1006.4hPa West 18.4mph /  29.6km/h 14.3mph /  23.0km/h 85% 0in /  0.0mm 16.00 W/m2 OVC
09:44 49.1 °F /  9.5 °C 44.8 °F /  7.1 °C 29.7in /  1006.3hPa West 19.6mph /  31.5km/h 15.8mph /  25.4km/h 85% 0in /  0.0mm 14.00 W/m2 OVC
09:49 49.1 °F /  9.5 °C 44.8 °F /  7.1 °C 29.7in /  1006.3hPa West 20.7mph /  33.3km/h 16.2mph /  26.1km/h 85% 0in /  0.0mm 14.00 W/m2 OVC
09:54 49.1 °F /  9.5 °C 44.8 °F /  7.1 °C 29.7in /  1006.3hPa West 21.9mph /  35.2km/h 13.1mph /  21.1km/h 85% 0in /  0.0mm 14.00 W/m2 BKN
09:59 48.9 °F /  9.4 °C 45 °F /  7.2 °C 29.7in /  1006.4hPa West 22mph /  35.4km/h 16.3mph /  26.2km/h 86% 0in /  0.0mm 19.00 W/m2 SCT
10:04 49.1 °F /  9.5 °C 45.1 °F /  7.3 °C 29.7in /  1006.3hPa WSW 24.2mph /  38.9km/h 17.4mph /  28.0km/h 86% 0in /  0.0mm 14.00 W/m2 CLR
10:09 49.1 °F /  9.5 °C 45.1 °F /  7.3 °C 29.7in /  1006.3hPa WNW 18.4mph /  29.6km/h 14.1mph /  22.7km/h 86% 0in /  0.0mm 21.00 W/m2 CLR
10:14 48.9 °F /  9.4 °C 45 °F /  7.2 °C 29.7in /  1006.1hPa West 23mph /  37.0km/h 16.2mph /  26.1km/h 86% 0in /  0.0mm 25.00 W/m2 CLR
10:19 48.7 °F /  9.3 °C 44.8 °F /  7.1 °C 29.7in /  1006.1hPa West 28.8mph /  46.3km/h 16.4mph /  26.4km/h 86% 0in /  0.0mm 25.00 W/m2 CLR
10:24 48.6 °F /  9.2 °C 44.6 °F /  7.0 °C 29.7in /  1006.1hPa West 18.4mph /  29.6km/h 15.4mph /  24.8km/h 86% 0in /  0.0mm 23.00 W/m2 FEW
10:29 48.4 °F /  9.1 °C 44.8 °F /  7.1 °C 29.7in /  1006.1hPa West 18mph /  29.0km/h 15.7mph /  25.3km/h 87% 0in /  0.0mm 25.00 W/m2 SCT
10:34 48.4 °F /  9.1 °C 44.6 °F /  7.0 °C 29.7in /  1006.0hPa West 19mph /  30.6km/h 16.7mph /  26.9km/h 87% 0.01in /  0.3mm 26.00 W/m2 RA
10:39 48.2 °F /  9.0 °C 44.2 °F /  6.8 °C 29.7in /  1006.0hPa West 21.9mph /  35.2km/h 16.4mph /  26.4km/h 86% 0.01in /  0.3mm 23.00 W/m2 RA
10:44 48 °F /  8.9 °C 44.1 °F /  6.7 °C 29.7in /  1005.9hPa West 19.6mph /  31.5km/h 12.2mph /  19.6km/h 86% 0.01in /  0.3mm 26.00 W/m2 BKN
10:49 48 °F /  8.9 °C 44.1 °F /  6.7 °C 29.7in /  1005.8hPa West 20.7mph /  33.3km/h 14.6mph /  23.5km/h 86% 0.01in /  0.3mm 37.00 W/m2 BKN
10:54 48 °F /  8.9 °C 44.1 °F /  6.7 °C 29.7in /  1005.8hPa West 26.5mph /  42.6km/h 14.2mph /  22.8km/h 86% 0.01in /  0.3mm 21.00 W/m2 BKN
10:59 48 °F /  8.9 °C 44.1 °F /  6.7 °C 29.7in /  1005.8hPa West 21.9mph /  35.2km/h 14.4mph /  23.2km/h 86% 0.01in /  0.3mm 25.00 W/m2 BKN
11:04 48 °F /  8.9 °C 44.1 °F /  6.7 °C 29.7in /  1005.7hPa WSW 19mph /  30.6km/h 16.4mph /  26.4km/h 86% 0.01in /  0.3mm 32.00 W/m2 BKN
11:09 48 °F /  8.9 °C 44.1 °F /  6.7 °C 29.7in /  1005.6hPa West 23mph /  37.0km/h 16.8mph /  27.0km/h 86% 0.02in /  0.5mm 30.00 W/m2 RA
11:14 48.2 °F /  9.0 °C 44.2 °F /  6.8 °C 29.7in /  1005.7hPa West 21.9mph /  35.2km/h 17.1mph /  27.5km/h 86% 0.02in /  0.5mm 25.00 W/m2 RA
11:19 48.2 °F /  9.0 °C 44.2 °F /  6.8 °C 29.7in /  1005.7hPa West 25mph /  40.2km/h 17mph /  27.4km/h 86% 0.02in /  0.5mm 21.00 W/m2 BKN
11:24 48.4 °F /  9.1 °C 44.2 °F /  6.8 °C 29.7in /  1005.5hPa West 21.9mph /  35.2km/h 14.9mph /  24.0km/h 86% 0.02in /  0.5mm 28.00 W/m2 BKN
11:29 48.4 °F /  9.1 °C 44.2 °F /  6.8 °C 29.7in /  1005.6hPa WSW 27.6mph /  44.4km/h 17mph /  27.4km/h 86% 0.02in /  0.5mm 21.00 W/m2 BKN
11:34 48.4 °F /  9.1 °C 44.4 °F /  6.9 °C 29.7in /  1005.4hPa WSW 23mph /  37.0km/h 16.9mph /  27.2km/h 86% 0.01in /  0.3mm 32.00 W/m2 BKN
11:39 48.7 °F /  9.3 °C 44.8 °F /  7.1 °C 29.7in /  1005.2hPa WSW 28.8mph /  46.3km/h 16.1mph /  25.9km/h 86% 0.02in /  0.5mm 44.00 W/m2 RA
11:44 48.7 °F /  9.3 °C 44.8 °F /  7.1 °C 29.7in /  1005.2hPa West 20.7mph /  33.3km/h 15.8mph /  25.4km/h 86% 0.02in /  0.5mm 39.00 W/m2 RA
11:49 48.9 °F /  9.4 °C 45 °F /  7.2 °C 29.7in /  1005.2hPa West 20.7mph /  33.3km/h 13.8mph /  22.2km/h 86% 0.02in /  0.5mm 35.00 W/m2 BKN
11:54 48.9 °F /  9.4 °C 45 °F /  7.2 °C 29.7in /  1005.2hPa WSW 23mph /  37.0km/h 16.4mph /  26.4km/h 86% 0.02in /  0.5mm 44.00 W/m2 BKN
11:59 49.1 °F /  9.5 °C 45.1 °F /  7.3 °C 29.7in /  1005.0hPa West 19.6mph /  31.5km/h 17.2mph /  27.7km/h 86% 0.02in /  0.5mm 39.00 W/m2 BKN
12:04 49.3 °F /  9.6 °C 45.1 °F /  7.3 °C 29.7in /  1004.9hPa WNW 19.6mph /  31.5km/h 16.2mph /  26.1km/h 86% 0.02in /  0.5mm 46.00 W/m2 BKN
12:09 49.3 °F /  9.6 °C 45.3 °F /  7.4 °C 29.7in /  1004.8hPa WNW 24.2mph /  38.9km/h 15.8mph /  25.4km/h 86% 0.01in /  0.3mm 44.00 W/m2 BKN
12:14 49.3 °F /  9.6 °C 45.3 °F /  7.4 °C 29.7in /  1004.7hPa WNW 27.6mph /  44.4km/h 16.1mph /  25.9km/h 86% 0.01in /  0.3mm 40.00 W/m2 BKN
12:19 49.5 °F /  9.7 °C 45.3 °F /  7.4 °C 29.7in /  1004.6hPa WNW 18.4mph /  29.6km/h 14.5mph /  23.3km/h 86% 0.01in /  0.3mm 39.00 W/m2 BKN
12:24 49.3 °F /  9.6 °C 45.3 °F /  7.4 °C 29.7in /  1004.5hPa West 20.7mph /  33.3km/h 16.3mph /  26.2km/h 86% 0.01in /  0.3mm 35.00 W/m2 BKN
12:29 49.5 °F /  9.7 °C 45.3 °F /  7.4 °C 29.7in /  1004.3hPa WNW 23mph /  37.0km/h 17mph /  27.4km/h 86% 0.01in /  0.3mm 49.00 W/m2 BKN
12:34 49.5 °F /  9.7 °C 45.3 °F /  7.4 °C 29.7in /  1004.3hPa West 21.9mph /  35.2km/h 16.2mph /  26.1km/h 86% 0.01in /  0.3mm 51.00 W/m2 BKN
12:39 49.5 °F /  9.7 °C 45.5 °F /  7.5 °C 29.7in /  1004.3hPa West 24.2mph /  38.9km/h 14.1mph /  22.7km/h 86% 0in /  0.0mm 72.00 W/m2 BKN
12:44 49.6 °F /  9.8 °C 45.3 °F /  7.4 °C 29.7in /  1004.2hPa West 27.6mph /  44.4km/h 21.1mph /  33.9km/h 85% 0in /  0.0mm 60.00 W/m2 BKN
12:49 49.6 °F /  9.8 °C 45.3 °F /  7.4 °C 29.7in /  1004.3hPa WSW 31.1mph /  50.0km/h 19.5mph /  31.4km/h 85% 0in /  0.0mm 54.00 W/m2 BKN
12:54 49.6 °F /  9.8 °C 45.3 °F /  7.4 °C 29.7in /  1004.2hPa West 29.9mph /  48.1km/h 19.5mph /  31.4km/h 85% 0in /  0.0mm 65.00 W/m2 BKN
12:59 49.6 °F /  9.8 °C 45.3 °F /  7.4 °C 29.7in /  1004.0hPa West 19.6mph /  31.5km/h 13.5mph /  21.7km/h 85% 0in /  0.0mm 58.00 W/m2 BKN
13:04 49.6 °F /  9.8 °C 45.3 °F /  7.4 °C 29.7in /  1004.1hPa WSW 21.9mph /  35.2km/h 16.9mph /  27.2km/h 85% 0in /  0.0mm 60.00 W/m2 BKN
13:09 49.6 °F /  9.8 °C 45.3 °F /  7.4 °C 29.6in /  1003.7hPa WSW 32.2mph /  51.8km/h 16.6mph /  26.7km/h 85% 0in /  0.0mm 86.00 W/m2 BKN
13:14 49.6 °F /  9.8 °C 45.3 °F /  7.4 °C 29.6in /  1003.5hPa WSW 25.3mph /  40.7km/h 18.8mph /  30.2km/h 85% 0in /  0.0mm 91.00 W/m2 BKN
13:19 49.6 °F /  9.8 °C 45.3 °F /  7.4 °C 29.6in /  1003.5hPa West 20.7mph /  33.3km/h 16mph /  25.7km/h 85% 0in /  0.0mm 81.00 W/m2 BKN
13:24 49.6 °F /  9.8 °C 45.3 °F /  7.4 °C 29.6in /  1003.5hPa West 23mph /  37.0km/h 18.3mph /  29.4km/h 85% 0in /  0.0mm 63.00 W/m2 BKN
13:29 49.6 °F /  9.8 °C 45.3 °F /  7.4 °C 29.6in /  1003.5hPa West 20.7mph /  33.3km/h 16.7mph /  26.9km/h 85% 0in /  0.0mm 62.00 W/m2 BKN
13:34 49.6 °F /  9.8 °C 45.3 °F /  7.4 °C 29.6in /  1003.5hPa West 27mph /  43.4km/h 19mph /  30.6km/h 85% 0in /  0.0mm 70.00 W/m2 BKN
13:39 49.5 °F /  9.7 °C 45.5 °F /  7.5 °C 29.6in /  1003.3hPa West 26.5mph /  42.6km/h 17.2mph /  27.7km/h 86% 0in /  0.0mm 62.00 W/m2 BKN
13:44 49.1 °F /  9.5 °C 45.1 °F /  7.3 °C 29.6in /  1003.3hPa NW 26.5mph /  42.6km/h 17.5mph /  28.2km/h 86% 0in /  0.0mm 51.00 W/m2 BKN
13:49 48.9 °F /  9.4 °C 45 °F /  7.2 °C 29.6in /  1003.2hPa WSW 23mph /  37.0km/h 18.9mph /  30.4km/h 86% 0.01in /  0.3mm 46.00 W/m2 RA
13:54 48.9 °F /  9.4 °C 45 °F /  7.2 °C 29.6in /  1003.2hPa WNW 21mph /  33.8km/h 18.6mph /  29.9km/h 86% 0.01in /  0.3mm 47.00 W/m2 RA
13:59 49.1 °F /  9.5 °C 45.1 °F /  7.3 °C 29.6in /  1003.0hPa West 25.3mph /  40.7km/h 19.4mph /  31.2km/h 86% 0.01in /  0.3mm 44.00 W/m2 BKN
14:04 49.3 °F /  9.6 °C 45.1 °F /  7.3 °C 29.6in /  1003.0hPa WNW 26.5mph /  42.6km/h 16.6mph /  26.7km/h 86% 0.01in /  0.3mm 35.00 W/m2 BKN
14:09 49.3 °F /  9.6 °C 45.1 °F /  7.3 °C 29.6in /  1003.1hPa West 26.5mph /  42.6km/h 17.1mph /  27.5km/h 86% 0.01in /  0.3mm 25.00 W/m2 BKN
14:14 49.3 °F /  9.6 °C 45.3 °F /  7.4 °C 29.6in /  1003.0hPa West 20.7mph /  33.3km/h 15.9mph /  25.6km/h 86% 0.01in /  0.3mm 25.00 W/m2 BKN
14:19 49.5 °F /  9.7 °C 45.3 °F /  7.4 °C 29.6in /  1003.0hPa West 23mph /  37.0km/h 17.7mph /  28.5km/h 86% 0.01in /  0.3mm 25.00 W/m2 BKN
14:24 49.3 °F /  9.6 °C 45.3 °F /  7.4 °C 29.6in /  1003.0hPa WSW 29mph /  46.7km/h 18.1mph /  29.1km/h 86% 0.01in /  0.3mm 28.00 W/m2 BKN
14:29 49.3 °F /  9.6 °C 45.3 °F /  7.4 °C 29.6in /  1002.7hPa West 32.2mph /  51.8km/h 22.4mph /  36.0km/h 86% 0.01in /  0.3mm 32.00 W/m2 BKN
14:34 49.5 °F /  9.7 °C 45.3 °F /  7.4 °C 29.6in /  1002.6hPa West 28.8mph /  46.3km/h 21.6mph /  34.8km/h 86% 0.01in /  0.3mm 30.00 W/m2 BKN
14:39 49.3 °F /  9.6 °C 45.3 °F /  7.4 °C 29.6in /  1002.7hPa WSW 24.2mph /  38.9km/h 15.4mph /  24.8km/h 86% 0.01in /  0.3mm 30.00 W/m2 BKN
14:44 49.3 °F /  9.6 °C 45.3 °F /  7.4 °C 29.6in /  1002.9hPa WSW 27.6mph /  44.4km/h 17.8mph /  28.6km/h 86% 0.01in /  0.3mm 26.00 W/m2 BKN
14:49 49.5 °F /  9.7 °C 45.1 °F /  7.3 °C 29.6in /  1002.8hPa WNW 25.3mph /  40.7km/h 17.6mph /  28.3km/h 85% 0in /  0.0mm 23.00 W/m2 BKN
14:54 49.5 °F /  9.7 °C 45.1 °F /  7.3 °C 29.6in /  1002.7hPa West 26.5mph /  42.6km/h 15.1mph /  24.3km/h 85% 0in /  0.0mm 21.00 W/m2 BKN
14:59 49.5 °F /  9.7 °C 45.1 °F /  7.3 °C 29.6in /  1002.7hPa West 24.2mph /  38.9km/h 18mph /  29.0km/h 85% 0in /  0.0mm 23.00 W/m2 BKN
15:04 49.5 °F /  9.7 °C 45.1 °F /  7.3 °C 29.6in /  1002.6hPa West 26.5mph /  42.6km/h 16.7mph /  26.9km/h 85% 0in /  0.0mm 25.00 W/m2 BKN
15:09 49.5 °F /  9.7 °C 45.1 °F /  7.3 °C 29.6in /  1002.6hPa West 18.4mph /  29.6km/h 15.8mph /  25.4km/h 85% 0in /  0.0mm 23.00 W/m2 BKN
15:14 49.5 °F /  9.7 °C 45.1 °F /  7.3 °C 29.6in /  1002.6hPa West 21.9mph /  35.2km/h 15.1mph /  24.3km/h 85% 0in /  0.0mm 25.00 W/m2 BKN
15:19 49.5 °F /  9.7 °C 45.1 °F /  7.3 °C 29.6in /  1002.5hPa WSW 21.9mph /  35.2km/h 17.7mph /  28.5km/h 85% 0in /  0.0mm 28.00 W/m2 BKN
15:24 49.6 °F /  9.8 °C 45.3 °F /  7.4 °C 29.6in /  1002.6hPa West 31.1mph /  50.0km/h 20.3mph /  32.7km/h 85% 0in /  0.0mm 32.00 W/m2 BKN
15:29 49.6 °F /  9.8 °C 45.3 °F /  7.4 °C 29.6in /  1002.4hPa West 25.3mph /  40.7km/h 16.4mph /  26.4km/h 85% 0in /  0.0mm 33.00 W/m2 BKN
15:34 49.6 °F /  9.8 °C 45.3 °F /  7.4 °C 29.6in /  1002.3hPa West 22mph /  35.4km/h 17.2mph /  27.7km/h 85% 0in /  0.0mm 33.00 W/m2 BKN
15:39 49.6 °F /  9.8 °C 45.3 °F /  7.4 °C 29.6in /  1002.3hPa West 26.5mph /  42.6km/h 19.6mph /  31.5km/h 85% 0in /  0.0mm 35.00 W/m2 BKN
15:44 49.6 °F /  9.8 °C 45.3 °F /  7.4 °C 29.6in /  1002.3hPa West 28.8mph /  46.3km/h 20.5mph /  33.0km/h 85% 0in /  0.0mm 40.00 W/m2 BKN
15:49 49.6 °F /  9.8 °C 45.3 °F /  7.4 °C 29.6in /  1002.2hPa West 29.9mph /  48.1km/h 19.1mph /  30.7km/h 85% 0in /  0.0mm 33.00 W/m2 BKN
15:54 49.6 °F /  9.8 °C 45.3 °F /  7.4 °C 29.6in /  1002.3hPa West 24.2mph /  38.9km/h 20.9mph /  33.6km/h 85% 0in /  0.0mm 28.00 W/m2 BKN
15:59 49.6 °F /  9.8 °C 45.3 °F /  7.4 °C 29.6in /  1002.6hPa West 27.6mph /  44.4km/h 17.8mph /  28.6km/h 85% 0in /  0.0mm 35.00 W/m2 BKN
16:04 49.6 °F /  9.8 °C 45.3 °F /  7.4 °C 29.6in /  1002.5hPa West 21.9mph /  35.2km/h 16.5mph /  26.5km/h 85% 0in /  0.0mm 28.00 W/m2 BKN
16:09 49.5 °F /  9.7 °C 45.1 °F /  7.3 °C 29.6in /  1002.4hPa West 29mph /  46.7km/h 22.8mph /  36.7km/h 85% 0in /  0.0mm 18.00 W/m2 BKN
16:14 49.5 °F /  9.7 °C 45 °F /  7.2 °C 29.6in /  1002.4hPa West 26.5mph /  42.6km/h 19.4mph /  31.2km/h 84% 0in /  0.0mm 9.00 W/m2 BKN
16:19 49.5 °F /  9.7 °C 45 °F /  7.2 °C 29.6in /  1002.4hPa West 26.5mph /  42.6km/h 13.6mph /  21.9km/h 84% 0in /  0.0mm 7.00 W/m2 BKN
16:24 49.5 °F /  9.7 °C 45 °F /  7.2 °C 29.6in /  1002.3hPa West 21mph /  33.8km/h 16mph /  25.7km/h 84% 0in /  0.0mm 7.00 W/m2 BKN
16:29 49.6 °F /  9.8 °C 45 °F /  7.2 °C 29.6in /  1002.3hPa NW 23mph /  37.0km/h 18.8mph /  30.2km/h 84% 0in /  0.0mm 5.00 W/m2 OVC
16:34 49.6 °F /  9.8 °C 45.1 °F /  7.3 °C 29.6in /  1002.3hPa West 23mph /  37.0km/h 16.9mph /  27.2km/h 84% 0in /  0.0mm 5.00 W/m2 BKN
16:39 49.8 °F /  9.9 °C 45.3 °F /  7.4 °C 29.6in /  1002.5hPa West 18.4mph /  29.6km/h 14.9mph /  24.0km/h 84% 0in /  0.0mm 0.00 W/m2 OVC
16:44 49.8 °F /  9.9 °C 45.1 °F /  7.3 °C 29.6in /  1002.5hPa West 32.2mph /  51.8km/h 21.6mph /  34.8km/h 84% 0in /  0.0mm 0.00 W/m2 OVC
16:49 49.3 °F /  9.6 °C 45 °F /  7.2 °C 29.6in /  1002.5hPa West 29.9mph /  48.1km/h 20.9mph /  33.6km/h 85% 0.01in /  0.3mm 0.00 W/m2 RA
16:54 48.9 °F /  9.4 °C 45 °F /  7.2 °C 29.6in /  1002.5hPa West 26mph /  41.8km/h 22.2mph /  35.7km/h 86% 0.01in /  0.3mm 0.00 W/m2 RA
16:59 48.9 °F /  9.4 °C 44.8 °F /  7.1 °C 29.6in /  1002.4hPa West 26.5mph /  42.6km/h 21mph /  33.8km/h 85% 0.01in /  0.3mm 0.00 W/m2
17:04 48.9 °F /  9.4 °C 44.8 °F /  7.1 °C 29.6in /  1002.3hPa WSW 25.3mph /  40.7km/h 14.1mph /  22.7km/h 85% 0.01in /  0.3mm 0.00 W/m2
17:09 49.3 °F /  9.6 °C 45 °F /  7.2 °C 29.6in /  1002.4hPa WNW 26.5mph /  42.6km/h 21.7mph /  34.9km/h 85% 0.02in /  0.5mm 0.00 W/m2 RA
17:14 49.3 °F /  9.6 °C 45 °F /  7.2 °C 29.6in /  1002.3hPa West 33.4mph /  53.7km/h 17.1mph /  27.5km/h 85% 0.02in /  0.5mm 0.00 W/m2 RA
17:19 49.5 °F /  9.7 °C 45.1 °F /  7.3 °C 29.6in /  1002.2hPa WSW 25.3mph /  40.7km/h 19.5mph /  31.4km/h 85% 0.02in /  0.5mm 0.00 W/m2
17:24 49.5 °F /  9.7 °C 45.1 °F /  7.3 °C 29.6in /  1002.2hPa West 29.9mph /  48.1km/h 19.1mph /  30.7km/h 85% 0.02in /  0.5mm 0.00 W/m2
17:29 49.5 °F /  9.7 °C 45.1 °F /  7.3 °C 29.6in /  1002.2hPa WNW 28.8mph /  46.3km/h 19mph /  30.6km/h 85% 0.02in /  0.5mm 0.00 W/m2
17:34 49.5 °F /  9.7 °C 45.1 °F /  7.3 °C 29.6in /  1002.4hPa WSW 26.5mph /  42.6km/h 18.9mph /  30.4km/h 85% 0.02in /  0.5mm 0.00 W/m2
17:39 49.6 °F /  9.8 °C 45.3 °F /  7.4 °C 29.6in /  1002.3hPa WSW 24.2mph /  38.9km/h 17mph /  27.4km/h 85% 0.02in /  0.5mm 0.00 W/m2
17:44 49.5 °F /  9.7 °C 45.1 °F /  7.3 °C 29.6in /  1002.2hPa West 29.9mph /  48.1km/h 14.4mph /  23.2km/h 85% 0.02in /  0.5mm 0.00 W/m2
17:49 49.5 °F /  9.7 °C 45.1 °F /  7.3 °C 29.6in /  1002.2hPa WSW 27.6mph /  44.4km/h 20.8mph /  33.5km/h 85% 0.01in /  0.3mm 0.00 W/m2
17:54 49.5 °F /  9.7 °C 45 °F /  7.2 °C 29.6in /  1002.2hPa West 23mph /  37.0km/h 18.8mph /  30.2km/h 84% 0.01in /  0.3mm 0.00 W/m2
17:59 49.6 °F /  9.8 °C 45 °F /  7.2 °C 29.6in /  1002.0hPa WNW 29.9mph /  48.1km/h 22.4mph /  36.0km/h 84% 0.01in /  0.3mm 0.00 W/m2
18:04 49.6 °F /  9.8 °C 45 °F /  7.2 °C 29.6in /  1002.1hPa WNW 26.5mph /  42.6km/h 17mph /  27.4km/h 84% 0.01in /  0.3mm 0.00 W/m2
18:09 49.6 °F /  9.8 °C 45 °F /  7.2 °C 29.6in /  1002.2hPa West 31.1mph /  50.0km/h 17.7mph /  28.5km/h 84% 0in /  0.0mm 0.00 W/m2 CLR
18:14 49.6 °F /  9.8 °C 45 °F /  7.2 °C 29.6in /  1002.1hPa WNW 24.2mph /  38.9km/h 16.9mph /  27.2km/h 84% 0in /  0.0mm 0.00 W/m2 CLR
18:19 49.5 °F /  9.7 °C 45 °F /  7.2 °C 29.6in /  1002.0hPa West 21.9mph /  35.2km/h 17.3mph /  27.8km/h 84% 0in /  0.0mm 0.00 W/m2 CLR
18:24 49.5 °F /  9.7 °C 45 °F /  7.2 °C 29.6in /  1002.1hPa WNW 24.2mph /  38.9km/h 18.5mph /  29.8km/h 84% 0in /  0.0mm 0.00 W/m2 CLR
18:29 49.5 °F /  9.7 °C 44.8 °F /  7.1 °C 29.6in /  1002.3hPa WNW 28.8mph /  46.3km/h 18.4mph /  29.6km/h 84% 0in /  0.0mm 0.00 W/m2 CLR
18:34 49.3 °F /  9.6 °C 44.6 °F /  7.0 °C 29.6in /  1002.2hPa NW 27.6mph /  44.4km/h 16.7mph /  26.9km/h 84% 0in /  0.0mm 0.00 W/m2 CLR
18:39 49.3 °F /  9.6 °C 44.8 °F /  7.1 °C 29.6in /  1002.3hPa West 25.3mph /  40.7km/h 18mph /  29.0km/h 84% 0in /  0.0mm 0.00 W/m2 CLR
18:44 49.5 °F /  9.7 °C 44.4 °F /  6.9 °C 29.6in /  1002.3hPa West 24.2mph /  38.9km/h 17.4mph /  28.0km/h 83% 0in /  0.0mm 0.00 W/m2 CLR
18:49 49.3 °F /  9.6 °C 44.2 °F /  6.8 °C 29.6in /  1002.3hPa West 19mph /  30.6km/h 12mph /  19.3km/h 83% 0in /  0.0mm 0.00 W/m2 CLR
18:54 49.1 °F /  9.5 °C 44.2 °F /  6.8 °C 29.6in /  1002.3hPa WNW 19mph /  30.6km/h 13mph /  20.9km/h 83% 0in /  0.0mm 0.00 W/m2 CLR
18:59 48.9 °F /  9.4 °C 44.1 °F /  6.7 °C 29.6in /  1002.2hPa NW 19.6mph /  31.5km/h 10.9mph /  17.5km/h 83% 0in /  0.0mm 0.00 W/m2 CLR
19:04 48.7 °F /  9.3 °C 43.9 °F /  6.6 °C 29.6in /  1002.2hPa NW 20mph /  32.2km/h 16.6mph /  26.7km/h 83% 0in /  0.0mm 0.00 W/m2 CLR
19:09 48.7 °F /  9.3 °C 43.9 °F /  6.6 °C 29.6in /  1002.4hPa West 19.6mph /  31.5km/h 12.7mph /  20.4km/h 83% 0in /  0.0mm 0.00 W/m2 CLR
19:14 48.7 °F /  9.3 °C 43.9 °F /  6.6 °C 29.6in /  1002.4hPa NW 21.9mph /  35.2km/h 13mph /  20.9km/h 83% 0in /  0.0mm 0.00 W/m2 CLR
19:19 48.7 °F /  9.3 °C 44.1 °F /  6.7 °C 29.6in /  1002.3hPa WNW 13.8mph /  22.2km/h 11.5mph /  18.5km/h 84% 0in /  0.0mm 0.00 W/m2 CLR
19:24 48.6 °F /  9.2 °C 43.9 °F /  6.6 °C 29.6in /  1002.3hPa WNW 20.7mph /  33.3km/h 14.1mph /  22.7km/h 84% 0in /  0.0mm 0.00 W/m2 CLR
19:29 48.4 °F /  9.1 °C 43.7 °F /  6.5 °C 29.6in /  1002.4hPa NW 16.1mph /  25.9km/h 12.7mph /  20.4km/h 84% 0in /  0.0mm 0.00 W/m2 CLR
19:34 48 °F /  8.9 °C 43.5 °F /  6.4 °C 29.6in /  1002.4hPa WNW 18mph /  29.0km/h 15.8mph /  25.4km/h 84% 0in /  0.0mm 0.00 W/m2 CLR
19:39 48 °F /  8.9 °C 43.5 °F /  6.4 °C 29.6in /  1002.5hPa WNW 21.9mph /  35.2km/h 15.2mph /  24.5km/h 84% 0in /  0.0mm 0.00 W/m2 CLR
19:44 48 °F /  8.9 °C 43.3 °F /  6.3 °C 29.6in /  1002.5hPa West 24mph /  38.6km/h 17.3mph /  27.8km/h 84% 0in /  0.0mm 0.00 W/m2 CLR
19:49 48 °F /  8.9 °C 43.3 °F /  6.3 °C 29.6in /  1002.5hPa NW 21.9mph /  35.2km/h 13.5mph /  21.7km/h 84% 0in /  0.0mm 0.00 W/m2 CLR
19:54 47.8 °F /  8.8 °C 43.2 °F /  6.2 °C 29.6in /  1002.7hPa WNW 19.6mph /  31.5km/h 11.2mph /  18.0km/h 84% 0in /  0.0mm 0.00 W/m2 CLR
19:59 47.7 °F /  8.7 °C 43.2 °F /  6.2 °C 29.6in /  1002.7hPa NW 20.7mph /  33.3km/h 14mph /  22.5km/h 84% 0in /  0.0mm 0.00 W/m2 CLR
20:04 47.7 °F /  8.7 °C 43.2 °F /  6.2 °C 29.6in /  1002.6hPa NW 21mph /  33.8km/h 19.1mph /  30.7km/h 84% 0in /  0.0mm 0.00 W/m2 CLR
20:09 47.8 °F /  8.8 °C 43 °F /  6.1 °C 29.6in /  1002.7hPa WNW 25.3mph /  40.7km/h 17.7mph /  28.5km/h 83% 0in /  0.0mm 0.00 W/m2 CLR
20:14 47.8 °F /  8.8 °C 43 °F /  6.1 °C 29.6in /  1002.7hPa NW 19.6mph /  31.5km/h 12.7mph /  20.4km/h 83% 0in /  0.0mm 0.00 W/m2 CLR
20:19 47.7 °F /  8.7 °C 42.8 °F /  6.0 °C 29.6in /  1002.8hPa NW 19.6mph /  31.5km/h 14.4mph /  23.2km/h 83% 0in /  0.0mm 0.00 W/m2 CLR
20:24 47.5 °F /  8.6 °C 42.6 °F /  5.9 °C 29.6in /  1002.8hPa NW 19.6mph /  31.5km/h 12.1mph /  19.5km/h 83% 0in /  0.0mm 0.00 W/m2 CLR
20:29 47.5 °F /  8.6 °C 42.4 °F /  5.8 °C 29.6in /  1002.9hPa NW 19.6mph /  31.5km/h 12.1mph /  19.5km/h 83% 0in /  0.0mm 0.00 W/m2 CLR
20:34 47.5 °F /  8.6 °C 42.8 °F /  6.0 °C 29.6in /  1002.9hPa NW 19.6mph /  31.5km/h 13.4mph /  21.6km/h 84% 0in /  0.0mm 0.00 W/m2 CLR
20:39 47.5 °F /  8.6 °C 42.8 °F /  6.0 °C 29.6in /  1003.0hPa WNW 16.1mph /  25.9km/h 11.2mph /  18.0km/h 84% 0in /  0.0mm 0.00 W/m2 CLR
20:44 47.3 °F /  8.5 °C 42.6 °F /  5.9 °C 29.6in /  1003.0hPa NW 18mph /  29.0km/h 14.8mph /  23.8km/h 84% 0in /  0.0mm 0.00 W/m2 CLR
20:49 47.3 °F /  8.5 °C 42.4 °F /  5.8 °C 29.6in /  1003.1hPa NW 17.3mph /  27.8km/h 10.8mph /  17.4km/h 83% 0in /  0.0mm 0.00 W/m2 CLR
20:54 47.1 °F /  8.4 °C 42.4 °F /  5.8 °C 29.6in /  1003.2hPa West 18.4mph /  29.6km/h 12mph /  19.3km/h 84% 0in /  0.0mm 0.00 W/m2 CLR
20:59 46.9 °F /  8.3 °C 42.4 °F /  5.8 °C 29.6in /  1003.2hPa NW 16.1mph /  25.9km/h 11.7mph /  18.8km/h 84% 0in /  0.0mm 0.00 W/m2 CLR
21:04 47.1 °F /  8.4 °C 42.4 °F /  5.8 °C 29.6in /  1003.3hPa NW 20.7mph /  33.3km/h 13.4mph /  21.6km/h 84% 0in /  0.0mm 0.00 W/m2 CLR
21:09 47.3 °F /  8.5 °C 42.4 °F /  5.8 °C 29.6in /  1003.2hPa WNW 18.4mph /  29.6km/h 14.7mph /  23.7km/h 83% 0in /  0.0mm 0.00 W/m2 CLR
21:14 47.5 °F /  8.6 °C 42.4 °F /  5.8 °C 29.6in /  1003.4hPa WNW 19.6mph /  31.5km/h 13.4mph /  21.6km/h 83% 0in /  0.0mm 0.00 W/m2 CLR
21:19 47.3 °F /  8.5 °C 42.4 °F /  5.8 °C 29.6in /  1003.3hPa WNW 26.5mph /  42.6km/h 15.8mph /  25.4km/h 83% 0in /  0.0mm 0.00 W/m2 CLR
21:24 47.1 °F /  8.4 °C 42.3 °F /  5.7 °C 29.6in /  1003.4hPa WNW 19.6mph /  31.5km/h 16mph /  25.7km/h 83% 0in /  0.0mm 0.00 W/m2 CLR
21:29 47.1 °F /  8.4 °C 42.3 °F /  5.7 °C 29.6in /  1003.5hPa NW 18.4mph /  29.6km/h 11.4mph /  18.3km/h 83% 0in /  0.0mm 0.00 W/m2 CLR
21:34 46.9 °F /  8.3 °C 42.1 °F /  5.6 °C 29.6in /  1003.6hPa NW 19.6mph /  31.5km/h 15.1mph /  24.3km/h 83% 0in /  0.0mm 0.00 W/m2 CLR
21:39 46.9 °F /  8.3 °C 41.7 °F /  5.4 °C 29.6in /  1003.6hPa WNW 21mph /  33.8km/h 14.1mph /  22.7km/h 82% 0in /  0.0mm 0.00 W/m2 CLR
21:44 46.9 °F /  8.3 °C 41.7 °F /  5.4 °C 29.6in /  1003.7hPa WNW 17.3mph /  27.8km/h 14.5mph /  23.3km/h 82% 0in /  0.0mm 0.00 W/m2 CLR
21:49 46.9 °F /  8.3 °C 41.7 °F /  5.4 °C 29.6in /  1003.8hPa WNW 18.4mph /  29.6km/h 14.4mph /  23.2km/h 82% 0in /  0.0mm 0.00 W/m2 CLR
21:54 46.9 °F /  8.3 °C 41.7 °F /  5.4 °C 29.6in /  1003.9hPa WNW 24.2mph /  38.9km/h 14.5mph /  23.3km/h 82% 0in /  0.0mm 0.00 W/m2 CLR
21:59 46.9 °F /  8.3 °C 41.7 °F /  5.4 °C 29.6in /  1003.9hPa NW 18.4mph /  29.6km/h 13mph /  20.9km/h 82% 0in /  0.0mm 0.00 W/m2 CLR
22:04 46.9 °F /  8.3 °C 41.7 °F /  5.4 °C 29.6in /  1003.8hPa WNW 19.6mph /  31.5km/h 12.5mph /  20.1km/h 82% 0in /  0.0mm 0.00 W/m2 CLR
22:09 46.9 °F /  8.3 °C 41.7 °F /  5.4 °C 29.6in /  1003.8hPa NW 21.9mph /  35.2km/h 14.4mph /  23.2km/h 82% 0in /  0.0mm 0.00 W/m2 CLR
22:14 47.1 °F /  8.4 °C 42.1 °F /  5.6 °C 29.6in /  1003.7hPa WNW 18.4mph /  29.6km/h 12.3mph /  19.8km/h 82% 0in /  0.0mm 0.00 W/m2 CLR
22:19 47.1 °F /  8.4 °C 42.1 °F /  5.6 °C 29.6in /  1003.9hPa NW 19.6mph /  31.5km/h 14.7mph /  23.7km/h 82% 0in /  0.0mm 0.00 W/m2 CLR
22:24 47.1 °F /  8.4 °C 41.9 °F /  5.5 °C 29.7in /  1004.0hPa NW 16.1mph /  25.9km/h 14.5mph /  23.3km/h 82% 0in /  0.0mm 0.00 W/m2 CLR
22:29 46.9 °F /  8.3 °C 41.7 °F /  5.4 °C 29.7in /  1004.1hPa NW 18.4mph /  29.6km/h 12.2mph /  19.6km/h 82% 0in /  0.0mm 0.00 W/m2 CLR
22:34 47.1 °F /  8.4 °C 41.9 °F /  5.5 °C 29.7in /  1004.2hPa WNW 21.9mph /  35.2km/h 13.8mph /  22.2km/h 82% 0in /  0.0mm 0.00 W/m2 CLR
22:39 46.9 °F /  8.3 °C 42.1 °F /  5.6 °C 29.7in /  1004.1hPa WNW 17.3mph /  27.8km/h 16.3mph /  26.2km/h 83% 0in /  0.0mm 0.00 W/m2 CLR
22:44 46.9 °F /  8.3 °C 42.1 °F /  5.6 °C 29.7in /  1004.1hPa WNW 16.1mph /  25.9km/h 11.6mph /  18.7km/h 83% 0in /  0.0mm 0.00 W/m2 CLR
22:49 47.1 °F /  8.4 °C 41.9 °F /  5.5 °C 29.7in /  1004.1hPa WNW 21.9mph /  35.2km/h 12.3mph /  19.8km/h 82% 0in /  0.0mm 0.00 W/m2 CLR
22:54 47.1 °F /  8.4 °C 42.1 °F /  5.6 °C 29.7in /  1004.2hPa NW 21.9mph /  35.2km/h 14.3mph /  23.0km/h 82% 0in /  0.0mm 0.00 W/m2 CLR
22:59 47.1 °F /  8.4 °C 41.9 °F /  5.5 °C 29.7in /  1004.3hPa NW 19.6mph /  31.5km/h 13.5mph /  21.7km/h 82% 0in /  0.0mm 0.00 W/m2 CLR
23:04 47.1 °F /  8.4 °C 41.9 °F /  5.5 °C 29.7in /  1004.3hPa NW 24.2mph /  38.9km/h 15.7mph /  25.3km/h 82% 0in /  0.0mm 0.00 W/m2 CLR
23:09 47.1 °F /  8.4 °C 42.1 °F /  5.6 °C 29.7in /  1004.3hPa NW 19.6mph /  31.5km/h 13.1mph /  21.1km/h 82% 0in /  0.0mm 0.00 W/m2 CLR
23:14 47.1 °F /  8.4 °C 41.9 °F /  5.5 °C 29.7in /  1004.4hPa WNW 23mph /  37.0km/h 16.3mph /  26.2km/h 82% 0in /  0.0mm 0.00 W/m2 CLR
23:19 47.1 °F /  8.4 °C 42.1 °F /  5.6 °C 29.7in /  1004.4hPa WNW 25.3mph /  40.7km/h 14.7mph /  23.7km/h 82% 0in /  0.0mm 0.00 W/m2 CLR
23:24 47.1 °F /  8.4 °C 42.1 °F /  5.6 °C 29.7in /  1004.4hPa WNW 17mph /  27.4km/h 13.1mph /  21.1km/h 82% 0in /  0.0mm 0.00 W/m2 CLR
23:29 46.9 °F /  8.3 °C 41.7 °F /  5.4 °C 29.7in /  1004.5hPa NW 18.4mph /  29.6km/h 12.4mph /  20.0km/h 82% 0in /  0.0mm 0.00 W/m2 CLR
23:34 46.8 °F /  8.2 °C 41.5 °F /  5.3 °C 29.7in /  1004.5hPa WNW 16.1mph /  25.9km/h 10.9mph /  17.5km/h 82% 0in /  0.0mm 0.00 W/m2 CLR
23:39 46.4 °F /  8.0 °C 41.2 °F /  5.1 °C 29.7in /  1004.7hPa NW 13mph /  20.9km/h 10.3mph /  16.6km/h 82% 0in /  0.0mm 0.00 W/m2 CLR
23:44 46.6 °F /  8.1 °C 41.5 °F /  5.3 °C 29.7in /  1004.8hPa WNW 15mph /  24.1km/h 11.5mph /  18.5km/h 83% 0in /  0.0mm 0.00 W/m2 CLR
23:49 46.6 °F /  8.1 °C 41.4 °F /  5.2 °C 29.7in /  1004.8hPa WNW 17.3mph /  27.8km/h 12.1mph /  19.5km/h 82% 0in /  0.0mm 0.00 W/m2 CLR
23:54 46.6 °F /  8.1 °C 41.7 °F /  5.4 °C 29.7in /  1004.8hPa WNW 15mph /  24.1km/h 11.6mph /  18.7km/h 83% 0in /  0.0mm 0.00 W/m2 CLR
23:59 46.6 °F /  8.1 °C 41.5 °F /  5.3 °C 29.7in /  1004.8hPa NW 19.6mph /  31.5km/h 14.5mph /  23.3km/h 83% 0in /  0.0mm 0.00 W/m2 CLR
Juneau County Weather